KBTV/BTV METAR and TAF weather

Enter ICAO airport designator
Station Type Date Time Source
KBTV METAR 2019/02/23 16:54 UTC NOAA

KBTV 231654Z 00000KT 10SM SCT100 BKN150 BKN200 01/M09 A3045 RMK AO2 SLP315 T00061089


Station Type Date Time Source
KBTV Decoded METAR 2019/02/23 16:54 UTC NOAA

BURLINGTON INTERNATIONAL, VT, United States (KBTV) 44-28N 73-09W 105M
Feb 23, 2019 - 11:54 AM EST / 2019.02.23 1654 UTC
Wind: Calm:0
Visibility: 10 mile(s):0
Sky conditions: mostly cloudy
Temperature: 33.1 F (0.6 C)
Dew Point: 16.0 F (-8.9 C)
Relative Humidity: 48%
Pressure (altimeter): 30.45 in. Hg (1031 hPa)
ob: KBTV 231654Z 00000KT 10SM SCT100 BKN150 BKN200 01/M09 A3045 RMK AO2 SLP315 T00061089
cycle: 17

Station Type Date Time Source
KBTV TAF 2019/02/23 12:36 UTC NOAA

TAF KBTV 231134Z 2312/2412 00000KT P6SM BKN040
FM231800 VRB03KT P6SM SCT200
FM240700 13007KT P6SM VCSH OVC050
FM240900 14010KT P6SM -SNPL OVC040
FM241100 14012G22KT P6SM -SNPL OVC030


Example: see airport list